createdAt,value
2022-10-28T00:00:16.674Z,15.06
2022-10-28T00:01:16.657Z,15.07
2022-10-28T00:02:16.640Z,15.12
2022-10-28T00:03:16.701Z,15.14
2022-10-28T00:04:16.704Z,15.17
2022-10-28T00:05:16.579Z,15.19
2022-10-28T00:06:16.565Z,15.25
2022-10-28T00:07:16.580Z,15.28
2022-10-28T00:08:16.536Z,15.28
2022-10-28T00:09:16.504Z,15.25
2022-10-28T00:10:16.518Z,15.32
2022-10-28T00:11:16.511Z,15.30
2022-10-28T00:12:16.492Z,15.32
2022-10-28T00:13:16.434Z,15.30
2022-10-28T00:14:16.487Z,15.30
2022-10-28T00:15:16.409Z,15.32
2022-10-28T00:16:16.487Z,15.30
2022-10-28T00:17:16.465Z,15.32
2022-10-28T00:18:16.461Z,15.30
2022-10-28T00:19:16.382Z,15.33
2022-10-28T00:20:16.444Z,15.28
2022-10-28T00:21:16.363Z,15.32
2022-10-28T00:22:16.379Z,15.30
2022-10-28T00:23:16.569Z,15.30
2022-10-28T00:24:16.331Z,15.32
2022-10-28T00:25:16.488Z,15.32
2022-10-28T00:26:16.365Z,15.27
2022-10-28T00:28:53.403Z,15.28
2022-10-28T00:32:17.331Z,15.25
2022-10-28T00:33:16.391Z,15.22
2022-10-28T00:34:17.363Z,15.17
2022-10-28T00:35:17.278Z,15.21
2022-10-28T00:36:17.285Z,15.18
2022-10-28T00:37:17.303Z,15.15
2022-10-28T00:38:17.321Z,15.18
2022-10-28T00:39:17.253Z,15.15
2022-10-28T00:40:17.269Z,15.19
2022-10-28T00:41:17.233Z,15.22
2022-10-28T00:42:17.208Z,15.24
2022-10-28T00:43:17.519Z,15.22
2022-10-28T00:44:17.177Z,15.21
2022-10-28T00:45:17.151Z,15.27
2022-10-28T00:46:17.236Z,15.30
2022-10-28T00:47:17.222Z,15.30
2022-10-28T00:48:17.192Z,15.30
2022-10-28T00:49:17.218Z,15.30
2022-10-28T00:50:17.215Z,15.35
2022-10-28T00:51:17.160Z,15.32
2022-10-28T00:52:17.181Z,15.30
2022-10-28T00:53:17.112Z,15.36
2022-10-28T00:54:17.089Z,15.37
2022-10-28T00:55:17.052Z,15.37
2022-10-28T00:56:17.137Z,15.43
2022-10-28T00:57:17.130Z,15.46
2022-10-28T00:58:17.088Z,15.46
2022-10-28T00:59:17.116Z,15.50
2022-10-28T01:00:17.305Z,15.48
2022-10-28T01:01:17.143Z,15.50
2022-10-28T01:02:17.083Z,15.48
2022-10-28T01:03:16.937Z,15.51
2022-10-28T01:04:16.976Z,15.55
2022-10-28T01:07:11.871Z,15.60
2022-10-28T01:08:11.419Z,15.62
2022-10-28T01:09:11.368Z,15.58
2022-10-28T01:10:11.320Z,15.62
2022-10-28T01:11:11.353Z,15.55
2022-10-28T01:12:11.357Z,15.62
2022-10-28T01:13:12.399Z,15.60
2022-10-28T01:14:11.378Z,15.57
2022-10-28T01:15:11.292Z,15.60
2022-10-28T01:16:11.330Z,15.60
2022-10-28T01:17:11.525Z,15.62
2022-10-28T01:18:11.295Z,15.64
2022-10-28T01:19:11.274Z,15.70
2022-10-28T01:20:11.270Z,15.72
2022-10-28T01:21:11.274Z,15.77
2022-10-28T01:22:11.231Z,15.83
2022-10-28T01:23:11.249Z,15.87
2022-10-28T01:24:11.215Z,15.97
2022-10-28T01:25:11.241Z,16.05
2022-10-28T01:26:11.185Z,16.10
2022-10-28T01:27:11.238Z,16.16
2022-10-28T01:28:11.173Z,16.24
2022-10-28T01:29:11.186Z,16.17
2022-10-28T01:30:11.122Z,16.21
2022-10-28T01:31:11.149Z,16.21
2022-10-28T01:32:11.225Z,16.21
2022-10-28T01:33:11.137Z,16.25
2022-10-28T01:34:11.116Z,16.21
2022-10-28T01:35:11.118Z,16.16
2022-10-28T01:36:11.053Z,16.17
2022-10-28T01:37:11.035Z,16.16
2022-10-28T01:40:17.319Z,16.25
2022-10-28T04:47:09.045Z,14.84
2022-10-28T04:48:10.025Z,14.82
2022-10-28T05:54:45.803Z,14.45
2022-10-28T05:55:47.870Z,14.50
2022-10-28T05:56:46.513Z,14.65
2022-10-28T05:57:46.506Z,14.74
2022-10-28T05:58:46.524Z,14.81
2022-10-28T05:59:46.463Z,14.91
2022-10-28T06:00:46.454Z,14.93
2022-10-28T06:01:46.452Z,14.96
2022-10-28T06:02:46.459Z,15.00
2022-10-28T06:03:46.475Z,15.07
2022-10-28T06:04:46.487Z,15.11
2022-10-28T06:05:46.460Z,15.17
2022-10-28T06:06:46.457Z,15.21
2022-10-28T06:07:46.365Z,15.25
2022-10-28T06:08:46.373Z,15.25
2022-10-28T06:09:46.435Z,15.33
2022-10-28T06:10:48.488Z,15.40
2022-10-28T06:11:44.853Z,15.42
2022-10-28T06:12:44.818Z,15.48
2022-10-28T06:13:44.844Z,15.50
2022-10-28T06:14:44.805Z,15.54
2022-10-28T06:15:44.740Z,15.55
2022-10-28T06:16:44.754Z,15.52
2022-10-28T06:17:44.794Z,15.58
2022-10-28T06:18:44.806Z,15.60
2022-10-28T06:19:44.738Z,15.65
2022-10-28T07:28:58.667Z,16.59
2022-10-28T07:29:59.562Z,16.62
2022-10-28T07:30:59.693Z,16.54
2022-10-28T07:31:59.408Z,16.62
2022-10-28T07:32:59.488Z,16.68
2022-10-28T07:33:59.403Z,16.65
2022-10-28T07:34:59.415Z,16.68
2022-10-28T07:35:59.358Z,16.76
2022-10-28T07:36:59.365Z,16.79
2022-10-28T07:37:59.386Z,16.82
2022-10-28T07:38:59.421Z,16.84
2022-10-28T07:39:59.382Z,16.90
2022-10-28T07:40:59.299Z,16.87
2022-10-28T07:42:00.303Z,16.93
2022-10-28T07:49:21.067Z,17.16
2022-10-28T07:50:22.396Z,17.16
2022-10-28T08:19:40.719Z,17.49
2022-10-28T08:19:45.951Z,17.56
2022-10-28T09:07:26.593Z,18.43
2022-10-28T10:22:07.476Z,20.34
2022-10-28T10:57:49.748Z,21.67
2022-10-28T12:59:18.771Z,23.18
2022-10-28T13:08:25.108Z,23.44
2022-10-28T13:09:26.143Z,23.46
2022-10-28T13:10:25.870Z,23.46
2022-10-28T13:17:41.788Z,23.27
2022-10-28T13:27:20.294Z,23.38
